createdAt,value
2023-08-16T00:00:43.763Z,21.14
2023-08-16T00:03:56.601Z,20.99
2023-08-16T00:07:09.365Z,20.97
2023-08-16T00:10:22.073Z,20.89
2023-08-16T00:13:34.601Z,20.70
2023-08-16T00:16:47.819Z,20.72
2023-08-16T00:20:00.236Z,20.70
2023-08-16T00:23:12.978Z,20.70
2023-08-16T00:26:25.392Z,20.58
2023-08-16T00:29:38.075Z,20.53
2023-08-16T00:32:50.543Z,20.51
2023-08-16T00:36:03.768Z,20.52
2023-08-16T00:39:16.217Z,20.49
2023-08-16T00:42:28.844Z,20.46
2023-08-16T00:45:41.206Z,20.30
2023-08-16T00:48:54.213Z,20.37
2023-08-16T00:52:06.706Z,20.36
2023-08-16T00:55:19.412Z,20.36
2023-08-16T00:58:31.859Z,20.43
2023-08-16T01:01:46.519Z,20.43
2023-08-16T01:04:59.033Z,20.33
2023-08-16T01:08:11.739Z,20.31
2023-08-16T01:11:34.939Z,20.33
2023-08-16T01:14:57.774Z,20.32
2023-08-16T01:18:10.848Z,20.26
2023-08-16T01:21:23.537Z,20.19
2023-08-16T01:27:58.128Z,20.16
2023-08-16T01:31:12.059Z,20.13
2023-08-16T01:34:26.437Z,20.06
2023-08-16T01:37:38.839Z,20.10
2023-08-16T01:40:57.693Z,20.13
2023-08-16T01:44:10.215Z,19.99
2023-08-16T01:47:23.232Z,19.94
2023-08-16T01:50:35.797Z,20.01
2023-08-16T01:53:53.403Z,20.04
2023-08-16T01:57:06.157Z,19.90
2023-08-16T02:00:18.896Z,19.96
2023-08-16T02:03:32.802Z,19.98
2023-08-16T02:06:45.556Z,19.93
2023-08-16T02:09:57.952Z,20.02
2023-08-16T02:13:10.696Z,19.94
2023-08-16T02:16:24.666Z,19.73
2023-08-16T02:19:37.485Z,19.72
2023-08-16T02:22:49.888Z,19.59
2023-08-16T02:26:02.554Z,19.77
2023-08-16T02:29:15.028Z,19.76
2023-08-16T02:32:27.692Z,19.78
2023-08-16T02:35:40.132Z,19.62
2023-08-16T02:38:52.843Z,19.28
2023-08-16T02:42:05.346Z,19.30
2023-08-16T02:45:18.449Z,19.43
2023-08-16T02:48:31.532Z,19.34
2023-08-16T02:51:44.237Z,19.17
2023-08-16T02:54:56.643Z,19.26
2023-08-16T02:58:09.366Z,19.24
2023-08-16T03:01:22.434Z,19.12
2023-08-16T03:04:40.181Z,19.15
2023-08-16T03:07:53.244Z,19.17
2023-08-16T03:11:06.329Z,19.19
2023-08-16T03:14:18.814Z,19.01
2023-08-16T03:17:31.538Z,19.22
2023-08-16T03:20:44.393Z,19.30
2023-08-16T03:23:57.268Z,19.16
2023-08-16T03:27:10.165Z,19.44
2023-08-16T03:30:22.939Z,19.28
2023-08-16T03:33:36.918Z,19.18
2023-08-16T03:36:49.666Z,19.29
2023-08-16T03:40:02.108Z,19.40
2023-08-16T03:43:14.819Z,19.28
2023-08-16T03:46:27.239Z,19.34
2023-08-16T03:49:39.928Z,19.26
2023-08-16T03:52:52.717Z,19.41
2023-08-16T03:56:05.480Z,19.28
2023-08-16T03:59:19.016Z,19.41
2023-08-16T04:02:31.728Z,19.50
2023-08-16T04:05:44.453Z,19.60
2023-08-16T04:08:56.840Z,19.53
2023-08-16T04:12:09.555Z,19.60
2023-08-16T04:15:21.990Z,19.68
2023-08-16T04:18:35.963Z,19.74
2023-08-16T04:21:48.372Z,20.02
2023-08-16T04:25:01.058Z,20.12
2023-08-16T04:28:14.253Z,20.19
2023-08-16T04:31:27.353Z,20.44
2023-08-16T04:34:40.048Z,20.57
2023-08-16T04:37:52.836Z,20.32
2023-08-16T04:41:05.506Z,20.36
2023-08-16T04:44:18.246Z,20.09
2023-08-16T04:47:31.401Z,20.17
2023-08-16T04:50:45.575Z,20.12
2023-08-16T04:53:58.214Z,20.22
2023-08-16T04:57:10.937Z,20.28
2023-08-16T05:00:24.393Z,20.28
2023-08-16T05:03:37.384Z,20.42
2023-08-16T05:06:49.830Z,20.56
2023-08-16T05:10:03.054Z,20.82
2023-08-16T05:13:16.385Z,21.01
2023-08-16T05:16:29.350Z,21.20
2023-08-16T05:19:42.386Z,21.28
2023-08-16T05:22:55.057Z,21.47
2023-08-16T05:26:07.500Z,21.53
2023-08-16T05:29:20.323Z,21.82
2023-08-16T05:32:33.152Z,21.73
2023-08-16T05:35:45.892Z,21.89
2023-08-16T05:38:58.287Z,21.89
2023-08-16T05:42:11.022Z,22.08
2023-08-16T05:45:24.180Z,21.75
2023-08-16T05:48:36.980Z,22.00
2023-08-16T05:51:51.449Z,22.11
2023-08-16T05:55:04.351Z,21.77
2023-08-16T05:58:16.772Z,22.04
2023-08-16T06:01:29.510Z,22.35
2023-08-16T06:04:42.195Z,22.18
2023-08-16T06:07:55.405Z,22.44
2023-08-16T06:11:09.842Z,22.49
2023-08-16T06:14:23.561Z,22.44
2023-08-16T06:17:38.593Z,22.62
2023-08-16T06:20:51.083Z,22.72
2023-08-16T06:24:05.329Z,22.81
2023-08-16T06:27:17.766Z,23.12
2023-08-16T06:30:30.629Z,22.98
2023-08-16T06:33:43.092Z,22.99
2023-08-16T06:36:58.975Z,23.22
2023-08-16T06:40:12.041Z,23.44
2023-08-16T06:43:24.961Z,23.71
2023-08-16T06:46:37.409Z,23.18
2023-08-16T06:49:50.139Z,23.51
2023-08-16T06:53:02.606Z,24.01
2023-08-16T06:56:15.338Z,23.72
2023-08-16T06:59:28.338Z,24.07
2023-08-16T07:02:42.296Z,24.39
2023-08-16T07:05:55.394Z,24.63
2023-08-16T07:09:08.105Z,24.78
2023-08-16T07:12:20.631Z,24.44
2023-08-16T07:15:33.312Z,24.85
2023-08-16T07:18:46.710Z,25.17
2023-08-16T07:21:59.445Z,25.61
2023-08-16T07:25:12.558Z,25.61
2023-08-16T07:28:26.192Z,25.41
2023-08-16T07:31:38.598Z,25.74
2023-08-16T07:34:51.550Z,26.03
2023-08-16T07:38:04.802Z,26.28
2023-08-16T07:41:17.514Z,26.45
2023-08-16T07:44:29.936Z,26.44
2023-08-16T07:47:43.472Z,26.72
2023-08-16T07:50:55.988Z,26.66
2023-08-16T07:54:08.630Z,26.38
2023-08-16T07:57:20.998Z,26.56
2023-08-16T08:00:33.913Z,26.89
2023-08-16T08:03:47.886Z,27.27
2023-08-16T08:07:00.395Z,27.19
2023-08-16T08:10:13.206Z,27.51
2023-08-16T08:13:26.456Z,27.79
2023-08-16T08:16:39.108Z,28.01
2023-08-16T08:19:51.606Z,27.94
2023-08-16T08:23:05.020Z,27.91
2023-08-16T08:26:17.779Z,27.89
2023-08-16T08:29:32.665Z,28.16
2023-08-16T08:32:45.113Z,28.10
2023-08-16T08:35:58.392Z,27.95
2023-08-16T08:39:10.894Z,27.64
2023-08-16T08:42:23.802Z,27.90
2023-08-16T08:45:36.678Z,27.61
2023-08-16T08:48:49.497Z,26.88
2023-08-16T08:52:05.997Z,27.21
2023-08-16T08:55:19.612Z,27.70
2023-08-16T08:58:32.127Z,27.97
2023-08-16T09:01:45.466Z,27.79
2023-08-16T09:04:59.798Z,27.80
2023-08-16T09:08:14.825Z,28.33
2023-08-16T09:11:27.245Z,28.31
2023-08-16T09:14:39.929Z,28.63
2023-08-16T09:17:52.402Z,28.04
2023-08-16T09:21:05.155Z,28.17
2023-08-16T09:24:17.534Z,28.01
2023-08-16T09:27:32.576Z,28.38
2023-08-16T09:30:44.956Z,28.41
2023-08-16T09:34:00.204Z,28.56
2023-08-16T09:37:13.868Z,28.34
2023-08-16T09:40:26.806Z,28.20
2023-08-16T09:43:39.224Z,28.11
2023-08-16T09:50:07.775Z,27.60
2023-08-16T09:53:36.425Z,28.15
2023-08-16T10:00:08.843Z,28.15
2023-08-16T10:03:26.313Z,28.05
2023-08-16T10:06:39.911Z,28.15
2023-08-16T10:09:52.397Z,28.44
2023-08-16T10:13:05.084Z,28.46
2023-08-16T10:16:17.565Z,28.86
2023-08-16T10:19:34.427Z,29.04
2023-08-16T10:22:48.158Z,29.16
2023-08-16T10:26:00.927Z,28.84
2023-08-16T10:32:30.203Z,28.87
2023-08-16T10:35:42.700Z,28.83
2023-08-16T10:38:59.269Z,28.90
2023-08-16T10:42:14.477Z,29.02
2023-08-16T10:48:46.579Z,29.12
2023-08-16T10:51:59.283Z,29.52
2023-08-16T10:55:15.514Z,29.39
2023-08-16T10:58:29.796Z,29.57
2023-08-16T11:01:49.503Z,29.62
2023-08-16T11:05:02.567Z,29.76
2023-08-16T11:08:16.527Z,29.65
2023-08-16T11:11:29.242Z,28.97
2023-08-16T11:14:41.598Z,29.20
2023-08-16T11:18:07.340Z,29.32
2023-08-16T11:21:21.869Z,29.74
2023-08-16T11:24:35.026Z,28.58
2023-08-16T11:27:47.404Z,29.16
2023-08-16T11:31:04.341Z,29.20
2023-08-16T11:34:19.438Z,29.42
2023-08-16T11:37:32.149Z,29.59
2023-08-16T11:40:48.738Z,29.69
2023-08-16T11:44:01.657Z,29.38
2023-08-16T11:47:14.099Z,29.76
2023-08-16T11:50:27.980Z,29.12
2023-08-16T11:53:40.433Z,29.16
2023-08-16T11:56:53.135Z,29.07
2023-08-16T12:00:06.765Z,28.90
2023-08-16T12:03:19.151Z,29.08
2023-08-16T12:06:32.593Z,29.55
2023-08-16T12:09:45.020Z,30.05
2023-08-16T12:12:57.941Z,30.37
2023-08-16T12:16:10.453Z,30.42
2023-08-16T12:19:23.455Z,30.27
2023-08-16T12:22:35.926Z,30.43
2023-08-16T12:25:48.731Z,29.32
2023-08-16T12:29:01.084Z,29.70
2023-08-16T12:32:13.721Z,29.39
2023-08-16T12:35:26.210Z,29.87
2023-08-16T12:38:40.253Z,29.73
2023-08-16T12:41:53.470Z,29.93
2023-08-16T12:45:06.800Z,29.95
2023-08-16T12:48:19.557Z,29.37
2023-08-16T12:51:32.410Z,29.99
2023-08-16T12:54:44.786Z,29.80
2023-08-16T12:58:03.280Z,30.07
2023-08-16T13:01:19.401Z,30.55
2023-08-16T13:04:36.698Z,30.92
2023-08-16T13:07:50.752Z,31.74
2023-08-16T13:14:30.074Z,32.40
2023-08-16T13:17:50.107Z,32.08
2023-08-16T13:27:44.905Z,33.82
2023-08-16T13:31:06.114Z,33.87
2023-08-16T13:37:44.430Z,33.56
2023-08-16T13:47:54.390Z,34.53
2023-08-16T13:51:07.087Z,34.13
2023-08-16T13:54:19.465Z,34.16
2023-08-16T13:57:32.139Z,34.66
2023-08-16T14:00:44.793Z,35.41
2023-08-16T14:03:58.544Z,34.89
2023-08-16T14:07:10.943Z,34.51
2023-08-16T14:10:25.628Z,34.35
2023-08-16T14:13:38.024Z,34.02
2023-08-16T14:16:50.768Z,34.94
2023-08-16T14:20:03.213Z,35.25
2023-08-16T14:23:16.189Z,35.44
2023-08-16T14:26:28.607Z,36.66
2023-08-16T14:29:41.264Z,36.19
2023-08-16T14:32:53.625Z,34.89
2023-08-16T14:36:06.372Z,34.83
2023-08-16T14:39:20.081Z,35.72
2023-08-16T14:42:32.857Z,35.66
2023-08-16T14:45:45.518Z,36.35
2023-08-16T14:48:58.248Z,35.38
2023-08-16T14:52:10.649Z,34.23
2023-08-16T14:55:26.577Z,34.55
2023-08-16T14:58:42.220Z,34.56
2023-08-16T15:01:54.711Z,34.68
2023-08-16T15:05:07.231Z,35.39
2023-08-16T15:08:20.307Z,35.87
2023-08-16T15:11:33.086Z,35.35
2023-08-16T15:14:45.767Z,34.49
2023-08-16T15:17:58.310Z,34.70
2023-08-16T15:21:10.996Z,35.87
2023-08-16T15:24:23.402Z,36.23
2023-08-16T15:27:36.035Z,35.44
2023-08-16T15:30:54.450Z,36.37
2023-08-16T15:34:07.168Z,36.47
2023-08-16T15:37:20.401Z,34.29
2023-08-16T15:40:38.112Z,34.34
2023-08-16T15:43:50.515Z,34.85
2023-08-16T15:47:03.179Z,34.75
2023-08-16T15:50:15.598Z,35.19
2023-08-16T15:53:28.328Z,35.40
2023-08-16T15:56:40.711Z,35.62
2023-08-16T15:59:53.372Z,35.31
2023-08-16T16:03:06.015Z,34.38
2023-08-16T16:06:18.762Z,35.15
2023-08-16T16:09:31.139Z,33.52
2023-08-16T16:12:43.840Z,32.99
2023-08-16T16:15:56.372Z,33.10
2023-08-16T16:19:09.085Z,32.98
2023-08-16T16:22:21.488Z,32.60
2023-08-16T16:25:34.319Z,32.79
2023-08-16T16:28:46.788Z,33.08
2023-08-16T16:31:59.416Z,32.99
2023-08-16T16:35:11.897Z,34.11
2023-08-16T16:38:24.704Z,34.40
2023-08-16T16:41:37.096Z,34.72
2023-08-16T16:44:51.685Z,34.73
2023-08-16T16:48:05.789Z,34.62
2023-08-16T16:51:18.594Z,34.41
2023-08-16T16:54:30.960Z,32.74
2023-08-16T16:57:43.600Z,32.13
2023-08-16T17:00:57.085Z,32.11
2023-08-16T17:04:09.837Z,31.51
2023-08-16T17:07:22.211Z,31.53
2023-08-16T17:10:34.858Z,31.71
2023-08-16T17:13:47.211Z,32.32
2023-08-16T17:17:00.633Z,32.59
2023-08-16T17:20:13.510Z,32.27
2023-08-16T17:23:26.274Z,31.70
2023-08-16T17:26:38.643Z,31.82
2023-08-16T17:29:51.381Z,31.18
2023-08-16T17:33:04.065Z,30.93
2023-08-16T17:36:20.844Z,30.56
2023-08-16T17:39:33.201Z,30.02
2023-08-16T17:42:46.294Z,30.20
2023-08-16T17:45:58.711Z,29.36
2023-08-16T17:49:11.476Z,28.40
2023-08-16T17:52:23.868Z,27.67
2023-08-16T17:55:36.533Z,26.33
2023-08-16T17:58:48.918Z,24.98
2023-08-16T18:02:01.924Z,24.46
2023-08-16T18:05:15.047Z,23.99
2023-08-16T18:08:27.589Z,23.45
2023-08-16T18:11:40.327Z,23.29
2023-08-16T18:14:52.719Z,23.30
2023-08-16T18:18:06.754Z,23.20
2023-08-16T18:21:19.201Z,23.06
2023-08-16T18:24:33.858Z,22.75
2023-08-16T18:27:46.497Z,22.66
2023-08-16T18:30:59.428Z,22.59
2023-08-16T18:34:12.156Z,22.74
2023-08-16T18:37:25.074Z,22.85
2023-08-16T18:40:37.594Z,22.70
2023-08-16T18:43:50.513Z,22.57
2023-08-16T18:47:02.940Z,22.17
2023-08-16T18:50:18.036Z,21.76
2023-08-16T18:53:30.413Z,21.56
2023-08-16T18:56:43.098Z,21.47
2023-08-16T18:59:55.501Z,21.29
2023-08-16T19:03:08.160Z,21.66
2023-08-16T19:06:20.535Z,21.66
2023-08-16T19:09:33.230Z,21.75
2023-08-16T19:12:45.607Z,21.81
2023-08-16T19:15:58.319Z,21.79
2023-08-16T19:19:10.790Z,21.89
2023-08-16T19:22:24.542Z,21.90
2023-08-16T19:25:36.969Z,22.15
2023-08-16T19:28:49.611Z,21.99
2023-08-16T19:32:02.044Z,21.86
2023-08-16T19:35:16.353Z,21.86
2023-08-16T19:38:28.922Z,22.11
2023-08-16T19:41:41.600Z,21.96
2023-08-16T19:44:54.108Z,22.07
2023-08-16T19:48:07.030Z,22.15
2023-08-16T19:51:19.443Z,22.23
2023-08-16T19:54:32.119Z,22.04
2023-08-16T19:57:44.494Z,21.90
2023-08-16T20:00:57.228Z,22.08
2023-08-16T20:04:09.912Z,22.07
2023-08-16T20:07:22.697Z,22.33
2023-08-16T20:10:35.761Z,22.20
2023-08-16T20:13:48.098Z,22.23
2023-08-16T20:17:00.886Z,22.20
2023-08-16T20:20:13.336Z,22.27
2023-08-16T20:23:26.050Z,22.33
2023-08-16T20:26:38.460Z,22.30
2023-08-16T20:29:51.120Z,22.44
2023-08-16T20:33:03.699Z,22.09
2023-08-16T20:36:16.419Z,22.21
2023-08-16T20:39:28.826Z,22.15
2023-08-16T20:42:41.713Z,22.16
2023-08-16T20:45:54.138Z,22.10
2023-08-16T20:49:12.503Z,21.87
2023-08-16T20:52:24.888Z,21.96
2023-08-16T20:55:37.578Z,21.82
2023-08-16T20:58:49.937Z,21.99
2023-08-16T21:02:02.595Z,21.91
2023-08-16T21:05:15.060Z,21.88
2023-08-16T21:08:27.780Z,21.79
2023-08-16T21:11:40.216Z,21.53
2023-08-16T21:14:53.084Z,21.71
2023-08-16T21:18:05.742Z,21.81
2023-08-16T21:21:18.422Z,21.70
2023-08-16T21:24:30.987Z,21.89
2023-08-16T21:27:43.756Z,21.82
2023-08-16T21:30:56.724Z,22.02
2023-08-16T21:34:10.865Z,21.72
2023-08-16T21:37:23.555Z,21.95
2023-08-16T21:40:36.976Z,21.85
2023-08-16T21:43:49.403Z,22.03
2023-08-16T21:47:02.077Z,22.09
2023-08-16T21:50:14.479Z,21.95
2023-08-16T21:53:27.137Z,21.90
2023-08-16T21:56:39.627Z,22.03
2023-08-16T21:59:52.359Z,21.86
2023-08-16T22:03:05.092Z,22.00
2023-08-16T22:06:17.903Z,22.13
2023-08-16T22:09:30.352Z,21.99
2023-08-16T22:12:43.020Z,22.02
2023-08-16T22:15:55.524Z,21.85
2023-08-16T22:19:08.245Z,21.97
2023-08-16T22:22:20.602Z,21.96
2023-08-16T22:25:33.257Z,21.93
2023-08-16T22:28:52.916Z,22.24
2023-08-16T22:32:06.027Z,22.20
2023-08-16T22:35:18.396Z,22.19
2023-08-16T22:38:31.047Z,22.26
2023-08-16T22:41:43.449Z,22.15
2023-08-16T22:44:56.106Z,22.31
2023-08-16T22:48:08.633Z,22.21
2023-08-16T22:51:21.294Z,22.10
2023-08-16T22:54:33.715Z,22.07
2023-08-16T22:57:46.606Z,21.95
2023-08-16T23:00:59.074Z,21.83
2023-08-16T23:04:11.808Z,21.60
2023-08-16T23:07:24.608Z,21.63
2023-08-16T23:10:41.507Z,21.58
2023-08-16T23:13:53.937Z,21.38
2023-08-16T23:17:06.650Z,21.29
2023-08-16T23:20:19.189Z,21.10
2023-08-16T23:23:31.913Z,21.04
2023-08-16T23:26:44.300Z,21.02
2023-08-16T23:29:56.964Z,21.02
2023-08-16T23:33:09.514Z,21.00
2023-08-16T23:36:22.275Z,20.83
2023-08-16T23:39:34.649Z,20.76
2023-08-16T23:42:47.473Z,20.65
2023-08-16T23:45:59.922Z,20.79
2023-08-16T23:49:12.587Z,20.72
2023-08-16T23:52:25.040Z,20.71
2023-08-16T23:55:39.441Z,20.75
2023-08-16T23:58:51.830Z,20.89
